Current Weather

Southampton

Southampton, United Kingdom (EGHI)

Report from: Saturday, June 22, 2024 10:50 AM BST
Current time: Saturday, June 22, 2024 11:29 AM BST

Nearby weather – Weather history – Daily summaries
Weather forecast

Temperature20.0°C (68.0°F)
Dew point9.0°C (48.2°F)
Winds 9 kts (4.6 m/s, 10.4 mph) Vrb
Winds variableWinds variable from West (260°) to North (359.999999°)
Visibility6.2 mi. (10 km)
Clouds Few clouds 2,800 ft. (853 m)
Ceiling: Broken clouds 4,600 ft. (1,402 m)
Altimeter29.91 in.Hg (1013 mB)
Relative humidity49 %
Density altitude758 ft. (231 m)
Flight conditions Visual Meteorological Conditions
Raw dataEGHI 220950Z 31009KT 260V360 9999 FEW028 BKN046 20/09 Q1013
An error has occurred. This application may no longer respond until reloaded. Reload 🗙